Time;durP1;ratioP1;P1;durP2;ratioP2;P2;SDS_P1;SDS_P2;PMS_P1;PMS_P2;Temp;Humidity;BMP_temperature;BMP_pressure;BME280_temperature;BME280_humidity;BME280_pressure;Samples;Min_cycle;Max_cycle;Signal;HPM_P1;HPM_P2
2022/09/27 00:14:44;;;;;;;30.48;19.05;;;;;;;8.69;83.52;98752.59;30629049;28;96688;-63
2022/09/27 00:29:45;;;;;;;28.17;17.90;;;;;;;8.66;83.63;98718.47;30627543;28;96981;-64
2022/09/27 00:45:00;;;;;;;28.73;17.52;;;;;;;8.63;83.33;98692.31;30625680;28;96735;-71
2022/09/27 01:00:06;;;;;;;27.47;17.07;;;;;;;8.40;83.43;98698.66;30624070;28;96654;-71
2022/09/27 01:15:48;;;;;;;30.37;16.77;;;;;;;8.02;83.13;98669.78;30623285;28;96840;-72
2022/09/27 01:31:14;;;;;;;28.97;17.47;;;;;;;7.94;84.21;98643.41;30599839;28;96863;-72
2022/09/27 01:46:44;;;;;;;27.07;16.77;;;;;;;7.91;84.15;98620.78;30619973;28;96758;-72
2022/09/27 02:01:50;;;;;;;23.33;16.10;;;;;;;7.75;83.82;98610.41;30618624;28;96701;-69
2022/09/27 02:16:53;;;;;;;26.13;16.93;;;;;;;7.75;84.38;98579.44;30617425;28;96682;-72
2022/09/27 02:31:53;;;;;;;23.10;15.53;;;;;;;7.91;84.95;98564.25;30616133;28;96841;-71
2022/09/27 02:46:56;;;;;;;26.98;15.60;;;;;;;8.03;84.58;98543.34;30614455;28;96871;-72
2022/09/27 03:02:07;;;;;;;23.40;13.90;;;;;;;8.01;84.16;98551.47;30614046;28;97569;-68
2022/09/27 03:17:07;;;;;;;20.87;14.17;;;;;;;8.00;84.29;98538.41;30611434;28;96638;-69
2022/09/27 03:32:08;;;;;;;24.95;14.70;;;;;;;8.04;84.85;98508.66;30628533;28;96675;-71
2022/09/27 03:47:08;;;;;;;23.15;14.20;;;;;;;8.05;84.24;98496.19;30628943;28;97271;-67
2022/09/27 04:02:09;;;;;;;22.67;14.45;;;;;;;8.09;84.33;98492.97;30629858;28;97029;-69
2022/09/27 04:17:09;;;;;;;22.50;15.48;;;;;;;8.13;84.68;98488.09;30627188;28;96666;-71
2022/09/27 04:32:10;;;;;;;20.48;14.60;;;;;;;8.16;84.57;98473.63;30623628;28;96699;-69
2022/09/27 04:47:10;;;;;;;24.60;14.32;;;;;;;8.20;84.32;98473.03;30622476;28;96765;-72
2022/09/27 05:02:10;;;;;;;22.35;14.63;;;;;;;8.26;84.63;98461.63;30621958;28;97579;-72
2022/09/27 05:17:12;;;;;;;19.63;13.82;;;;;;;8.32;84.25;98465.31;30620080;28;96672;-70
2022/09/27 05:32:13;;;;;;;21.83;14.57;;;;;;;8.38;84.59;98456.59;30621067;28;97025;-71
2022/09/27 05:47:14;;;;;;;21.83;13.43;;;;;;;8.48;84.21;98452.78;30616846;28;96678;-65
2022/09/27 06:02:15;;;;;;;18.48;13.52;;;;;;;8.62;84.22;98430.53;30617223;28;96838;-62
2022/09/27 06:17:15;;;;;;;22.30;14.68;;;;;;;8.92;84.48;98407.09;30616535;28;97260;-65
2022/09/27 06:32:15;;;;;;;18.65;12.90;;;;;;;9.20;84.15;98442.47;30614225;28;97277;-70
2022/09/27 06:47:16;;;;;;;19.30;12.80;;;;;;;9.34;83.97;98433.47;30610714;28;96766;-66
2022/09/27 07:02:17;;;;;;;16.45;11.68;;;;;;;9.65;83.77;98424.03;30609487;28;96921;-65
2022/09/27 07:17:18;;;;;;;19.20;12.77;;;;;;;9.87;83.47;98437.06;30610002;28;96824;-71
2022/09/27 07:32:18;;;;;;;21.27;12.13;;;;;;;9.94;83.44;98435.22;30607505;28;96668;-63
2022/09/27 07:47:19;;;;;;;17.92;12.93;;;;;;;10.03;83.26;98430.47;30607017;28;96725;-69
2022/09/27 08:02:20;;;;;;;20.35;11.77;;;;;;;10.32;83.21;98413.19;30607132;28;96785;-71
2022/09/27 08:17:20;;;;;;;17.37;12.43;;;;;;;10.61;82.67;98406.50;30624091;28;97391;-71
2022/09/27 08:32:21;;;;;;;19.70;13.23;;;;;;;10.67;83.14;98415.47;30625038;28;96728;-71
2022/09/27 08:47:32;;;;;;;16.80;10.93;;;;;;;10.73;82.82;98419.09;30624408;28;97227;-70
2022/09/27 09:02:34;;;;;;;17.27;11.63;;;;;;;10.97;82.84;98430.84;30621868;28;96821;-70
2022/09/27 09:17:53;;;;;;;17.73;12.93;;;;;;;11.35;82.44;98427.28;30618669;28;96873;-69
2022/09/27 09:33:04;;;;;;;18.13;12.50;;;;;;;11.93;82.24;98406.59;30618416;28;96732;-71
2022/09/27 09:48:09;;;;;;;15.17;9.60;;;;;;;12.38;81.52;98395.59;30618228;28;97122;-71
2022/09/27 10:03:09;;;;;;;12.87;9.17;;;;;;;12.47;81.06;98383.56;30618573;28;96709;-68
2022/09/27 10:18:16;;;;;;;11.52;8.95;;;;;;;12.64;80.90;98373.06;30616337;28;96671;-70
2022/09/27 10:33:18;;;;;;;12.27;9.23;;;;;;;12.83;80.51;98351.59;30613315;28;97028;-71
2022/09/27 10:48:22;;;;;;;16.23;10.17;;;;;;;12.68;80.35;98370.72;30613131;28;96697;-70
2022/09/27 11:03:25;;;;;;;14.17;10.27;;;;;;;12.58;80.55;98371.28;30611082;28;97108;-71
2022/09/27 11:18:40;;;;;;;12.13;8.83;;;;;;;12.63;80.62;98366.06;30611655;28;97241;-69
2022/09/27 11:34:18;;;;;;;30.83;10.80;;;;;;;13.03;80.68;98367.31;30610930;28;96823;-70
2022/09/27 11:49:30;;;;;;;11.53;8.67;;;;;;;14.05;80.43;98336.63;30620026;28;96751;-68
2022/09/27 12:04:49;;;;;;;12.43;7.57;;;;;;;14.63;78.77;98333.13;30628299;28;96794;-70
2022/09/27 12:19:57;;;;;;;8.57;5.77;;;;;;;14.33;77.69;98331.50;30624235;28;96660;-70
2022/09/27 12:35:32;;;;;;;11.67;6.77;;;;;;;13.71;77.96;98331.13;30623045;28;97793;-67
2022/09/27 12:51:16;;;;;;;8.83;5.47;;;;;;;13.46;78.57;98326.03;30631172;28;96746;-71
2022/09/27 13:06:46;;;;;;;7.13;5.57;;;;;;;13.41;79.00;98317.09;30622575;28;97289;-71
2022/09/27 13:21:53;;;;;;;6.37;4.23;;;;;;;13.42;78.56;98316.84;30619727;28;96922;-68
2022/09/27 13:36:53;;;;;;;9.30;5.27;;;;;;;13.40;78.38;98297.56;30619592;28;97535;-70
2022/09/27 13:52:02;;;;;;;10.68;6.72;;;;;;;13.74;78.01;98287.03;30617449;28;96674;-68
2022/09/27 14:07:04;;;;;;;8.77;6.90;;;;;;;13.85;77.64;98272.00;30615581;28;96786;-70
2022/09/27 14:22:17;;;;;;;9.60;4.87;;;;;;;13.74;77.59;98300.41;30614785;28;97089;-71
2022/09/27 14:37:25;;;;;;;7.07;5.07;;;;;;;13.67;77.93;98283.69;30613092;28;96837;-67
2022/09/27 14:52:31;;;;;;;9.23;6.50;;;;;;;13.46;78.40;98293.94;30613239;28;96921;-71
2022/09/27 15:07:32;;;;;;;10.40;5.70;;;;;;;13.34;78.88;98314.50;30610590;28;97350;-69
2022/09/27 15:22:44;;;;;;;6.88;4.57;;;;;;;13.07;79.04;98304.31;30608556;28;96693;-68
2022/09/27 15:37:45;;;;;;;8.30;5.43;;;;;;;12.85;79.44;98302.22;30608905;28;96768;-68
2022/09/27 15:52:50;;;;;;;10.40;6.20;;;;;;;12.66;79.66;98314.06;30607591;28;96784;-67
2022/09/27 16:07:51;;;;;;;10.17;6.77;;;;;;;12.46;80.30;98333.84;30604764;28;97391;-65
2022/09/27 16:22:56;;;;;;;8.80;5.53;;;;;;;12.43;80.78;98344.19;30603967;28;96856;-63
2022/09/27 16:37:57;;;;;;;3.23;1.60;;;;;;;12.13;78.17;98404.53;30620074;28;96788;-70
2022/09/27 16:52:59;;;;;;;1.52;0.80;;;;;;;11.52;77.55;98404.34;30624484;28;96677;-70
2022/09/27 17:07:59;;;;;;;1.43;1.00;;;;;;;10.90;76.79;98412.25;30622364;28;96693;-61
2022/09/27 17:22:59;;;;;;;5.20;2.15;;;;;;;10.36;77.38;98424.22;30620600;28;97312;-69
2022/09/27 17:38:00;;;;;;;4.18;1.60;;;;;;;9.73;78.21;98426.47;30617620;28;108976;-69
2022/09/27 17:53:00;;;;;;;6.00;2.65;;;;;;;9.07;78.92;98443.28;30616316;28;96646;-69
2022/09/27 18:08:01;;;;;;;7.43;2.70;;;;;;;8.71;79.94;98453.25;30616521;28;96657;-70
2022/09/27 18:23:01;;;;;;;5.53;2.90;;;;;;;8.71;80.53;98471.81;30615418;28;96649;-71
2022/09/27 18:38:02;;;;;;;8.43;4.38;;;;;;;8.48;80.80;98481.97;30614532;28;101283;-66
2022/09/27 18:53:02;;;;;;;10.18;5.10;;;;;;;8.20;80.89;98488.13;30613845;28;104824;-69
2022/09/27 19:08:02;;;;;;;9.95;5.05;;;;;;;7.92;81.81;98503.06;30612953;28;96668;-69
2022/09/27 19:23:03;;;;;;;8.93;5.18;;;;;;;7.76;81.91;98506.03;30611159;28;100028;-71
2022/09/27 19:38:04;;;;;;;4.70;2.67;;;;;;;7.64;81.82;98516.34;30609080;28;97056;-64
2022/09/27 19:53:06;;;;;;;4.68;2.92;;;;;;;7.55;81.90;98504.25;30607961;28;97165;-70
2022/09/27 20:08:06;;;;;;;6.57;3.20;;;;;;;7.44;82.13;98505.59;30618329;28;96756;-68
2022/09/27 20:23:07;;;;;;;6.90;4.30;;;;;;;7.38;82.09;98512.47;30627106;28;97098;-64
2022/09/27 20:38:07;;;;;;;10.85;7.38;;;;;;;7.28;83.05;98515.44;30624427;28;107247;-66
2022/09/27 20:53:07;;;;;;;11.35;6.70;;;;;;;7.60;82.67;98517.75;30623527;28;110842;-69
2022/09/27 21:08:08;;;;;;;9.02;5.63;;;;;;;7.52;82.17;98531.09;30622911;28;97187;-69
2022/09/27 21:23:08;;;;;;;8.48;3.60;;;;;;;7.18;81.72;98538.75;30620858;28;110970;-70
2022/09/27 21:38:09;;;;;;;8.27;4.85;;;;;;;7.19;82.11;98544.88;30620467;28;114269;-70
2022/09/27 21:53:09;;;;;;;13.13;7.55;;;;;;;7.26;82.88;98543.13;30620290;28;97385;-71
2022/09/27 22:08:10;;;;;;;7.70;4.57;;;;;;;7.28;83.06;98539.28;30619165;28;97421;-68
2022/09/27 22:23:11;;;;;;;6.40;3.58;;;;;;;7.58;82.22;98541.75;30617811;28;97367;-67
2022/09/27 22:38:11;;;;;;;8.55;4.82;;;;;;;7.66;81.95;98535.50;30615635;28;96847;-70
2022/09/27 22:53:12;;;;;;;7.28;4.53;;;;;;;7.74;82.50;98524.78;30614400;28;107520;-68
2022/09/27 23:08:13;;;;;;;6.70;3.85;;;;;;;7.73;82.41;98530.28;30613841;28;96688;-68
2022/09/27 23:23:13;;;;;;;7.22;3.90;;;;;;;7.80;82.38;98533.78;30611903;28;97475;-72
2022/09/27 23:38:14;;;;;;;7.47;4.35;;;;;;;7.68;82.04;98520.25;30615289;28;96715;-71
2022/09/27 23:53:15;;;;;;;6.03;3.03;;;;;;;7.81;82.11;98537.28;30631718;28;96652;-71
